map of KHNZ home
KHNZ - Airport
Location
City:  Oxford, North Carolina, United States
Name:Henderson-Oxford Airport
ICAO:KHNZ
FAA LID:HNZ

Details
Type:Airport (Airfield)
Use:Public/Civil
Latitude:3621'40"N (36.361139)
Longitude:7831'47"W (-78.529832)
Datum:WGS 1984
Elevation:526 ft (160 m)
Variation:9.46W (WMM2015 magnetic declination)
-0.04 annual change
Runways:1
Longest:5500 × 100 ft (1676 × 30.5 m), paved

Time
Time Zone:UTC-5 (DST-4)
Local Time:

Weather
METAR:KHNZ 161745Z AUTO 27006KT 10SM CLR 08/M01 A3001 RMK AO2 P0001 T00821011

Related Locations
Nearby:
Farthest:YAUG: 11658 mi / 18762 km
Augusta [Augusta Airport], WA, AU

Find:

   beyond  
but within

Other Information
Maps:
NOTAMs:
Links:
Sources:

  
  • flag of United States
  • flag of North Carolina
  

Sectional Chart

Flight Planning
at skyvector.com

Satellite Image

Google Maps Satellite view

 

Copyright © 2004-2018 Karl L. Swartz. All rights reserved.
The Great Circle Mapper name and logo are trademarks of the Great Circle Mapper.
All other trademarks mentioned herein belong to their respective owners.
Please see credits for attibutions and further copyright information.

  Follow gcmap on Facebook Follow gcmap on Twitter Follow gcmap on Google+ GCmap on LinkedIn

hCard Microformat

Geo Microformat